sensor_id;sensor_type;location;lat;lon;timestamp;P1;durP1;ratioP1;P2;durP2;ratioP2
60908;SDS011;46780;48.128;-1.704;2023-03-14T00:02:20;6.18;;;1.55;;
60908;SDS011;46780;48.128;-1.704;2023-03-14T00:04:48;6.07;;;1.40;;
60908;SDS011;46780;48.128;-1.704;2023-03-14T00:07:14;6.70;;;1.27;;
60908;SDS011;46780;48.128;-1.704;2023-03-14T00:09:41;6.85;;;1.13;;
60908;SDS011;46780;48.128;-1.704;2023-03-14T00:12:08;6.20;;;1.40;;
60908;SDS011;46780;48.128;-1.704;2023-03-14T00:14:34;6.80;;;1.45;;
60908;SDS011;46780;48.128;-1.704;2023-03-14T00:17:01;8.57;;;1.70;;
60908;SDS011;46780;48.128;-1.704;2023-03-14T00:19:27;8.07;;;1.63;;
60908;SDS011;46780;48.128;-1.704;2023-03-14T00:21:55;7.05;;;1.20;;
60908;SDS011;46780;48.128;-1.704;2023-03-14T00:24:22;8.77;;;1.50;;
60908;SDS011;46780;48.128;-1.704;2023-03-14T00:26:48;8.52;;;1.50;;
60908;SDS011;46780;48.128;-1.704;2023-03-14T00:29:14;8.15;;;1.30;;
60908;SDS011;46780;48.128;-1.704;2023-03-14T00:31:41;10.50;;;1.45;;
60908;SDS011;46780;48.128;-1.704;2023-03-14T00:34:07;11.60;;;1.60;;
60908;SDS011;46780;48.128;-1.704;2023-03-14T00:36:34;9.25;;;1.38;;
60908;SDS011;46780;48.128;-1.704;2023-03-14T00:39:02;5.90;;;1.30;;
60908;SDS011;46780;48.128;-1.704;2023-03-14T00:41:28;10.20;;;1.73;;
60908;SDS011;46780;48.128;-1.704;2023-03-14T00:43:55;7.18;;;1.25;;
60908;SDS011;46780;48.128;-1.704;2023-03-14T00:46:21;11.82;;;1.38;;
60908;SDS011;46780;48.128;-1.704;2023-03-14T00:48:48;6.88;;;1.40;;
60908;SDS011;46780;48.128;-1.704;2023-03-14T00:51:14;7.85;;;1.45;;
60908;SDS011;46780;48.128;-1.704;2023-03-14T00:53:41;7.18;;;1.25;;
60908;SDS011;46780;48.128;-1.704;2023-03-14T00:56:10;7.47;;;1.40;;
60908;SDS011;46780;48.128;-1.704;2023-03-14T00:58:38;6.97;;;1.17;;
60908;SDS011;46780;48.128;-1.704;2023-03-14T01:01:06;7.38;;;1.35;;
60908;SDS011;46780;48.128;-1.704;2023-03-14T01:03:33;6.85;;;1.20;;
60908;SDS011;46780;48.128;-1.704;2023-03-14T01:06:06;3.60;;;0.80;;
60908;SDS011;46780;48.128;-1.704;2023-03-14T01:08:34;4.82;;;0.95;;
60908;SDS011;46780;48.128;-1.704;2023-03-14T01:11:04;5.85;;;1.10;;
60908;SDS011;46780;48.128;-1.704;2023-03-14T01:13:32;6.13;;;1.10;;
60908;SDS011;46780;48.128;-1.704;2023-03-14T01:16:00;9.45;;;1.50;;
60908;SDS011;46780;48.128;-1.704;2023-03-14T01:18:28;10.30;;;1.70;;
60908;SDS011;46780;48.128;-1.704;2023-03-14T01:20:54;12.18;;;1.73;;
60908;SDS011;46780;48.128;-1.704;2023-03-14T01:23:20;11.48;;;1.60;;
60908;SDS011;46780;48.128;-1.704;2023-03-14T01:25:47;10.55;;;1.83;;
60908;SDS011;46780;48.128;-1.704;2023-03-14T01:28:13;10.20;;;2.00;;
60908;SDS011;46780;48.128;-1.704;2023-03-14T01:30:41;17.95;;;2.28;;
60908;SDS011;46780;48.128;-1.704;2023-03-14T01:33:08;14.50;;;2.30;;
60908;SDS011;46780;48.128;-1.704;2023-03-14T01:35:34;16.75;;;2.10;;
60908;SDS011;46780;48.128;-1.704;2023-03-14T01:38:01;13.48;;;2.28;;
60908;SDS011;46780;48.128;-1.704;2023-03-14T01:40:27;15.77;;;2.78;;
60908;SDS011;46780;48.128;-1.704;2023-03-14T01:42:54;13.70;;;2.50;;
60908;SDS011;46780;48.128;-1.704;2023-03-14T01:48:27;18.52;;;2.70;;
60908;SDS011;46780;48.128;-1.704;2023-03-14T01:50:58;19.83;;;2.95;;
60908;SDS011;46780;48.128;-1.704;2023-03-14T01:53:26;15.95;;;2.78;;
60908;SDS011;46780;48.128;-1.704;2023-03-14T01:55:54;22.20;;;3.10;;
60908;SDS011;46780;48.128;-1.704;2023-03-14T01:58:21;12.77;;;2.33;;
60908;SDS011;46780;48.128;-1.704;2023-03-14T02:00:50;16.05;;;2.22;;
60908;SDS011;46780;48.128;-1.704;2023-03-14T02:03:16;14.00;;;2.20;;
60908;SDS011;46780;48.128;-1.704;2023-03-14T02:05:47;15.70;;;2.78;;
60908;SDS011;46780;48.128;-1.704;2023-03-14T02:08:15;14.05;;;2.30;;
60908;SDS011;46780;48.128;-1.704;2023-03-14T02:10:45;14.68;;;2.65;;
60908;SDS011;46780;48.128;-1.704;2023-03-14T02:13:13;14.38;;;2.80;;
60908;SDS011;46780;48.128;-1.704;2023-03-14T02:15:41;15.80;;;2.50;;
60908;SDS011;46780;48.128;-1.704;2023-03-14T02:18:08;16.17;;;2.50;;
60908;SDS011;46780;48.128;-1.704;2023-03-14T02:20:37;14.05;;;2.65;;
60908;SDS011;46780;48.128;-1.704;2023-03-14T02:23:12;18.17;;;2.50;;
60908;SDS011;46780;48.128;-1.704;2023-03-14T02:25:42;16.15;;;2.60;;
60908;SDS011;46780;48.128;-1.704;2023-03-14T02:28:14;15.60;;;2.67;;
60908;SDS011;46780;48.128;-1.704;2023-03-14T02:30:41;19.25;;;2.88;;
60908;SDS011;46780;48.128;-1.704;2023-03-14T02:33:09;16.60;;;2.53;;
60908;SDS011;46780;48.128;-1.704;2023-03-14T02:35:40;15.98;;;2.40;;
60908;SDS011;46780;48.128;-1.704;2023-03-14T02:38:13;20.83;;;2.60;;
60908;SDS011;46780;48.128;-1.704;2023-03-14T02:40:45;16.85;;;2.60;;
60908;SDS011;46780;48.128;-1.704;2023-03-14T02:43:11;15.98;;;2.60;;
60908;SDS011;46780;48.128;-1.704;2023-03-14T02:45:43;16.17;;;2.65;;
60908;SDS011;46780;48.128;-1.704;2023-03-14T02:48:13;16.35;;;2.67;;
60908;SDS011;46780;48.128;-1.704;2023-03-14T02:50:42;15.57;;;2.28;;
60908;SDS011;46780;48.128;-1.704;2023-03-14T02:53:11;13.00;;;1.90;;
60908;SDS011;46780;48.128;-1.704;2023-03-14T02:55:39;13.15;;;2.17;;
60908;SDS011;46780;48.128;-1.704;2023-03-14T02:58:09;13.85;;;1.98;;
60908;SDS011;46780;48.128;-1.704;2023-03-14T03:00:37;12.27;;;1.90;;
60908;SDS011;46780;48.128;-1.704;2023-03-14T03:03:04;12.20;;;2.08;;
60908;SDS011;46780;48.128;-1.704;2023-03-14T03:05:30;13.13;;;1.90;;
60908;SDS011;46780;48.128;-1.704;2023-03-14T03:07:57;12.50;;;2.10;;
60908;SDS011;46780;48.128;-1.704;2023-03-14T03:10:24;13.40;;;2.00;;
60908;SDS011;46780;48.128;-1.704;2023-03-14T03:12:50;13.93;;;2.33;;
60908;SDS011;46780;48.128;-1.704;2023-03-14T03:15:17;13.52;;;2.13;;
60908;SDS011;46780;48.128;-1.704;2023-03-14T03:17:44;12.77;;;2.35;;
60908;SDS011;46780;48.128;-1.704;2023-03-14T03:20:11;13.98;;;2.15;;
60908;SDS011;46780;48.128;-1.704;2023-03-14T03:22:38;12.82;;;2.22;;
60908;SDS011;46780;48.128;-1.704;2023-03-14T03:25:05;13.45;;;2.22;;
60908;SDS011;46780;48.128;-1.704;2023-03-14T03:27:33;17.77;;;3.10;;
60908;SDS011;46780;48.128;-1.704;2023-03-14T03:30:00;18.15;;;2.88;;
60908;SDS011;46780;48.128;-1.704;2023-03-14T03:32:27;11.38;;;1.88;;
60908;SDS011;46780;48.128;-1.704;2023-03-14T03:34:55;14.95;;;2.58;;
60908;SDS011;46780;48.128;-1.704;2023-03-14T03:37:21;12.63;;;2.10;;
60908;SDS011;46780;48.128;-1.704;2023-03-14T03:39:49;15.20;;;2.55;;
60908;SDS011;46780;48.128;-1.704;2023-03-14T03:42:16;12.38;;;2.03;;
60908;SDS011;46780;48.128;-1.704;2023-03-14T03:44:43;15.35;;;2.20;;
60908;SDS011;46780;48.128;-1.704;2023-03-14T03:47:10;16.25;;;2.10;;
60908;SDS011;46780;48.128;-1.704;2023-03-14T03:49:36;14.88;;;2.35;;
60908;SDS011;46780;48.128;-1.704;2023-03-14T03:52:04;18.58;;;2.20;;
60908;SDS011;46780;48.128;-1.704;2023-03-14T03:54:30;21.48;;;2.90;;
60908;SDS011;46780;48.128;-1.704;2023-03-14T03:56:57;16.45;;;2.83;;
60908;SDS011;46780;48.128;-1.704;2023-03-14T03:59:23;16.63;;;2.40;;
60908;SDS011;46780;48.128;-1.704;2023-03-14T04:01:50;17.40;;;3.40;;
60908;SDS011;46780;48.128;-1.704;2023-03-14T04:04:16;20.15;;;2.75;;
60908;SDS011;46780;48.128;-1.704;2023-03-14T04:06:43;20.42;;;3.03;;
60908;SDS011;46780;48.128;-1.704;2023-03-14T04:09:11;19.75;;;2.83;;
60908;SDS011;46780;48.128;-1.704;2023-03-14T04:11:38;15.90;;;2.60;;
60908;SDS011;46780;48.128;-1.704;2023-03-14T04:14:04;16.45;;;2.60;;
60908;SDS011;46780;48.128;-1.704;2023-03-14T04:16:31;14.88;;;2.67;;
60908;SDS011;46780;48.128;-1.704;2023-03-14T04:18:57;22.00;;;3.30;;
60908;SDS011;46780;48.128;-1.704;2023-03-14T04:21:24;17.38;;;2.50;;
60908;SDS011;46780;48.128;-1.704;2023-03-14T04:23:51;19.48;;;3.05;;
60908;SDS011;46780;48.128;-1.704;2023-03-14T04:26:18;19.92;;;2.80;;
60908;SDS011;46780;48.128;-1.704;2023-03-14T04:28:45;18.33;;;2.80;;
60908;SDS011;46780;48.128;-1.704;2023-03-14T04:31:12;17.42;;;2.75;;
60908;SDS011;46780;48.128;-1.704;2023-03-14T04:33:40;20.35;;;3.00;;
60908;SDS011;46780;48.128;-1.704;2023-03-14T04:36:07;20.77;;;3.08;;
60908;SDS011;46780;48.128;-1.704;2023-03-14T04:38:34;19.70;;;2.72;;
60908;SDS011;46780;48.128;-1.704;2023-03-14T04:41:01;17.67;;;2.58;;
60908;SDS011;46780;48.128;-1.704;2023-03-14T04:43:29;17.13;;;2.60;;
60908;SDS011;46780;48.128;-1.704;2023-03-14T04:45:57;16.42;;;2.80;;
60908;SDS011;46780;48.128;-1.704;2023-03-14T04:48:23;18.75;;;2.90;;
60908;SDS011;46780;48.128;-1.704;2023-03-14T04:50:50;19.77;;;2.50;;
60908;SDS011;46780;48.128;-1.704;2023-03-14T04:53:17;17.55;;;2.65;;
60908;SDS011;46780;48.128;-1.704;2023-03-14T04:55:47;14.32;;;2.45;;
60908;SDS011;46780;48.128;-1.704;2023-03-14T04:58:14;17.80;;;2.50;;
60908;SDS011;46780;48.128;-1.704;2023-03-14T05:00:42;18.35;;;2.58;;
60908;SDS011;46780;48.128;-1.704;2023-03-14T05:03:08;18.10;;;2.72;;
60908;SDS011;46780;48.128;-1.704;2023-03-14T05:05:35;16.98;;;2.65;;
60908;SDS011;46780;48.128;-1.704;2023-03-14T05:08:01;15.77;;;2.80;;
60908;SDS011;46780;48.128;-1.704;2023-03-14T05:10:28;17.35;;;2.67;;
60908;SDS011;46780;48.128;-1.704;2023-03-14T05:12:54;19.02;;;3.30;;
60908;SDS011;46780;48.128;-1.704;2023-03-14T05:15:21;16.42;;;2.80;;
60908;SDS011;46780;48.128;-1.704;2023-03-14T05:17:49;21.48;;;3.05;;
60908;SDS011;46780;48.128;-1.704;2023-03-14T05:20:15;16.52;;;2.80;;
60908;SDS011;46780;48.128;-1.704;2023-03-14T05:22:42;17.85;;;2.55;;
60908;SDS011;46780;48.128;-1.704;2023-03-14T05:25:09;17.20;;;3.05;;
60908;SDS011;46780;48.128;-1.704;2023-03-14T05:27:35;21.58;;;3.25;;
60908;SDS011;46780;48.128;-1.704;2023-03-14T05:30:02;26.83;;;3.30;;
60908;SDS011;46780;48.128;-1.704;2023-03-14T05:32:29;21.80;;;2.67;;
60908;SDS011;46780;48.128;-1.704;2023-03-14T05:34:57;21.33;;;3.25;;
60908;SDS011;46780;48.128;-1.704;2023-03-14T05:37:24;22.13;;;3.00;;
60908;SDS011;46780;48.128;-1.704;2023-03-14T05:39:51;21.15;;;2.92;;
60908;SDS011;46780;48.128;-1.704;2023-03-14T05:42:17;18.85;;;2.85;;
60908;SDS011;46780;48.128;-1.704;2023-03-14T05:44:44;19.33;;;3.17;;
60908;SDS011;46780;48.128;-1.704;2023-03-14T05:47:10;23.92;;;3.42;;
60908;SDS011;46780;48.128;-1.704;2023-03-14T05:49:37;17.75;;;2.78;;
60908;SDS011;46780;48.128;-1.704;2023-03-14T05:52:05;22.45;;;3.40;;
60908;SDS011;46780;48.128;-1.704;2023-03-14T05:54:31;24.42;;;3.67;;
60908;SDS011;46780;48.128;-1.704;2023-03-14T05:56:58;19.73;;;3.08;;
60908;SDS011;46780;48.128;-1.704;2023-03-14T05:59:24;20.52;;;2.90;;
60908;SDS011;46780;48.128;-1.704;2023-03-14T06:01:51;22.63;;;3.00;;
60908;SDS011;46780;48.128;-1.704;2023-03-14T06:04:17;18.05;;;2.78;;
60908;SDS011;46780;48.128;-1.704;2023-03-14T06:06:44;17.17;;;2.88;;
60908;SDS011;46780;48.128;-1.704;2023-03-14T06:09:11;20.48;;;3.58;;
60908;SDS011;46780;48.128;-1.704;2023-03-14T06:11:38;19.05;;;2.67;;
60908;SDS011;46780;48.128;-1.704;2023-03-14T06:14:04;18.60;;;2.50;;
60908;SDS011;46780;48.128;-1.704;2023-03-14T06:16:31;20.45;;;3.22;;
60908;SDS011;46780;48.128;-1.704;2023-03-14T06:18:57;16.80;;;2.80;;
60908;SDS011;46780;48.128;-1.704;2023-03-14T06:21:24;21.48;;;2.95;;
60908;SDS011;46780;48.128;-1.704;2023-03-14T06:23:51;24.80;;;3.10;;
60908;SDS011;46780;48.128;-1.704;2023-03-14T06:26:19;20.75;;;3.00;;
60908;SDS011;46780;48.128;-1.704;2023-03-14T06:28:45;20.02;;;3.10;;
60908;SDS011;46780;48.128;-1.704;2023-03-14T06:31:12;17.88;;;3.10;;
60908;SDS011;46780;48.128;-1.704;2023-03-14T06:33:38;19.63;;;2.90;;
60908;SDS011;46780;48.128;-1.704;2023-03-14T06:36:05;18.75;;;3.17;;
60908;SDS011;46780;48.128;-1.704;2023-03-14T06:38:32;13.43;;;2.30;;
60908;SDS011;46780;48.128;-1.704;2023-03-14T06:41:02;17.20;;;2.88;;
60908;SDS011;46780;48.128;-1.704;2023-03-14T06:43:31;21.27;;;2.47;;
60908;SDS011;46780;48.128;-1.704;2023-03-14T06:45:57;18.83;;;2.95;;
60908;SDS011;46780;48.128;-1.704;2023-03-14T06:48:24;15.60;;;2.50;;
60908;SDS011;46780;48.128;-1.704;2023-03-14T06:50:50;16.45;;;2.10;;
60908;SDS011;46780;48.128;-1.704;2023-03-14T06:53:16;14.98;;;2.60;;
60908;SDS011;46780;48.128;-1.704;2023-03-14T06:55:43;15.70;;;2.30;;
60908;SDS011;46780;48.128;-1.704;2023-03-14T06:58:09;14.35;;;2.28;;
60908;SDS011;46780;48.128;-1.704;2023-03-14T07:00:37;16.80;;;2.97;;
60908;SDS011;46780;48.128;-1.704;2023-03-14T07:03:04;11.57;;;2.45;;
60908;SDS011;46780;48.128;-1.704;2023-03-14T07:05:30;16.40;;;2.40;;
60908;SDS011;46780;48.128;-1.704;2023-03-14T07:07:57;16.13;;;3.35;;
60908;SDS011;46780;48.128;-1.704;2023-03-14T07:10:23;14.95;;;2.42;;
60908;SDS011;46780;48.128;-1.704;2023-03-14T07:12:50;15.90;;;2.20;;
60908;SDS011;46780;48.128;-1.704;2023-03-14T07:15:16;17.02;;;2.53;;
60908;SDS011;46780;48.128;-1.704;2023-03-14T07:17:44;17.73;;;2.60;;
60908;SDS011;46780;48.128;-1.704;2023-03-14T07:20:11;16.05;;;2.38;;
60908;SDS011;46780;48.128;-1.704;2023-03-14T07:22:37;12.32;;;2.20;;
60908;SDS011;46780;48.128;-1.704;2023-03-14T07:25:04;13.50;;;2.13;;
60908;SDS011;46780;48.128;-1.704;2023-03-14T07:27:31;15.43;;;2.58;;
60908;SDS011;46780;48.128;-1.704;2023-03-14T07:29:57;15.23;;;2.03;;
60908;SDS011;46780;48.128;-1.704;2023-03-14T07:32:24;15.80;;;2.83;;
60908;SDS011;46780;48.128;-1.704;2023-03-14T07:34:52;15.60;;;2.30;;
60908;SDS011;46780;48.128;-1.704;2023-03-14T07:37:18;10.70;;;2.00;;
60908;SDS011;46780;48.128;-1.704;2023-03-14T07:39:45;14.98;;;2.33;;
60908;SDS011;46780;48.128;-1.704;2023-03-14T07:42:11;17.90;;;2.42;;
60908;SDS011;46780;48.128;-1.704;2023-03-14T07:44:37;16.30;;;2.60;;
60908;SDS011;46780;48.128;-1.704;2023-03-14T07:47:04;18.10;;;2.67;;
60908;SDS011;46780;48.128;-1.704;2023-03-14T07:49:30;14.57;;;2.60;;
60908;SDS011;46780;48.128;-1.704;2023-03-14T07:51:58;17.98;;;2.50;;
60908;SDS011;46780;48.128;-1.704;2023-03-14T07:54:24;13.30;;;2.30;;
60908;SDS011;46780;48.128;-1.704;2023-03-14T07:56:51;14.20;;;2.33;;
60908;SDS011;46780;48.128;-1.704;2023-03-14T07:59:17;14.07;;;2.60;;
60908;SDS011;46780;48.128;-1.704;2023-03-14T08:01:44;13.43;;;2.22;;
60908;SDS011;46780;48.128;-1.704;2023-03-14T08:04:10;12.20;;;2.20;;
60908;SDS011;46780;48.128;-1.704;2023-03-14T08:06:37;15.60;;;2.40;;
60908;SDS011;46780;48.128;-1.704;2023-03-14T08:09:05;12.60;;;2.10;;
60908;SDS011;46780;48.128;-1.704;2023-03-14T08:11:31;14.60;;;2.30;;
60908;SDS011;46780;48.128;-1.704;2023-03-14T08:13:58;14.20;;;2.40;;
60908;SDS011;46780;48.128;-1.704;2023-03-14T08:16:24;13.05;;;1.90;;
60908;SDS011;46780;48.128;-1.704;2023-03-14T08:18:50;16.00;;;2.65;;
60908;SDS011;46780;48.128;-1.704;2023-03-14T08:21:17;14.93;;;2.30;;
60908;SDS011;46780;48.128;-1.704;2023-03-14T08:23:43;15.50;;;2.53;;
60908;SDS011;46780;48.128;-1.704;2023-03-14T08:26:11;15.23;;;2.20;;
60908;SDS011;46780;48.128;-1.704;2023-03-14T08:28:38;13.93;;;2.38;;
60908;SDS011;46780;48.128;-1.704;2023-03-14T08:31:04;14.98;;;2.60;;
60908;SDS011;46780;48.128;-1.704;2023-03-14T08:33:31;16.45;;;2.85;;
60908;SDS011;46780;48.128;-1.704;2023-03-14T08:35:58;13.95;;;2.63;;
60908;SDS011;46780;48.128;-1.704;2023-03-14T08:38:26;15.02;;;2.80;;
60908;SDS011;46780;48.128;-1.704;2023-03-14T08:40:56;15.57;;;2.40;;
60908;SDS011;46780;48.128;-1.704;2023-03-14T08:43:25;11.32;;;2.33;;
60908;SDS011;46780;48.128;-1.704;2023-03-14T08:45:51;14.45;;;2.30;;
60908;SDS011;46780;48.128;-1.704;2023-03-14T08:48:18;12.73;;;2.33;;
60908;SDS011;46780;48.128;-1.704;2023-03-14T08:50:44;13.40;;;2.45;;
60908;SDS011;46780;48.128;-1.704;2023-03-14T08:53:11;13.23;;;2.55;;
60908;SDS011;46780;48.128;-1.704;2023-03-14T08:55:37;13.85;;;2.40;;
60908;SDS011;46780;48.128;-1.704;2023-03-14T08:58:04;16.45;;;2.60;;
60908;SDS011;46780;48.128;-1.704;2023-03-14T09:00:31;15.15;;;2.72;;
60908;SDS011;46780;48.128;-1.704;2023-03-14T09:02:58;15.95;;;2.80;;
60908;SDS011;46780;48.128;-1.704;2023-03-14T09:05:24;13.07;;;2.42;;
60908;SDS011;46780;48.128;-1.704;2023-03-14T09:07:51;13.80;;;2.53;;
60908;SDS011;46780;48.128;-1.704;2023-03-14T09:10:17;14.68;;;2.92;;
60908;SDS011;46780;48.128;-1.704;2023-03-14T09:12:44;17.98;;;2.75;;
60908;SDS011;46780;48.128;-1.704;2023-03-14T09:15:10;13.48;;;2.67;;
60908;SDS011;46780;48.128;-1.704;2023-03-14T09:17:38;15.35;;;2.50;;
60908;SDS011;46780;48.128;-1.704;2023-03-14T09:20:05;18.50;;;2.58;;
60908;SDS011;46780;48.128;-1.704;2023-03-14T09:22:32;14.43;;;2.58;;
60908;SDS011;46780;48.128;-1.704;2023-03-14T09:24:58;18.73;;;2.80;;
60908;SDS011;46780;48.128;-1.704;2023-03-14T09:27:25;20.67;;;2.67;;
60908;SDS011;46780;48.128;-1.704;2023-03-14T09:29:51;14.55;;;2.50;;
60908;SDS011;46780;48.128;-1.704;2023-03-14T09:32:18;16.17;;;2.65;;
60908;SDS011;46780;48.128;-1.704;2023-03-14T09:34:45;12.43;;;2.60;;
60908;SDS011;46780;48.128;-1.704;2023-03-14T09:37:12;13.45;;;2.67;;
60908;SDS011;46780;48.128;-1.704;2023-03-14T09:39:38;15.07;;;2.30;;
60908;SDS011;46780;48.128;-1.704;2023-03-14T09:42:06;16.60;;;2.42;;
60908;SDS011;46780;48.128;-1.704;2023-03-14T09:44:39;12.85;;;2.25;;
60908;SDS011;46780;48.128;-1.704;2023-03-14T09:47:13;13.77;;;2.25;;
60908;SDS011;46780;48.128;-1.704;2023-03-14T09:49:42;11.73;;;2.20;;
60908;SDS011;46780;48.128;-1.704;2023-03-14T09:52:13;12.52;;;2.30;;
60908;SDS011;46780;48.128;-1.704;2023-03-14T09:54:44;13.88;;;2.60;;
60908;SDS011;46780;48.128;-1.704;2023-03-14T09:57:13;13.55;;;2.60;;
60908;SDS011;46780;48.128;-1.704;2023-03-14T09:59:42;10.98;;;2.15;;
60908;SDS011;46780;48.128;-1.704;2023-03-14T10:02:15;11.85;;;2.30;;
60908;SDS011;46780;48.128;-1.704;2023-03-14T10:04:44;12.07;;;2.28;;
60908;SDS011;46780;48.128;-1.704;2023-03-14T10:07:14;11.35;;;2.10;;
60908;SDS011;46780;48.128;-1.704;2023-03-14T10:12:09;13.65;;;2.10;;
60908;SDS011;46780;48.128;-1.704;2023-03-14T10:14:37;14.93;;;2.03;;
60908;SDS011;46780;48.128;-1.704;2023-03-14T10:17:11;14.00;;;2.38;;
60908;SDS011;46780;48.128;-1.704;2023-03-14T10:19:43;11.65;;;2.20;;
60908;SDS011;46780;48.128;-1.704;2023-03-14T10:22:18;10.20;;;2.03;;
60908;SDS011;46780;48.128;-1.704;2023-03-14T10:24:46;11.27;;;2.17;;
60908;SDS011;46780;48.128;-1.704;2023-03-14T10:27:18;13.45;;;2.33;;
60908;SDS011;46780;48.128;-1.704;2023-03-14T10:29:51;11.07;;;2.00;;
60908;SDS011;46780;48.128;-1.704;2023-03-14T10:32:19;10.35;;;2.10;;
60908;SDS011;46780;48.128;-1.704;2023-03-14T10:34:46;8.88;;;2.00;;
60908;SDS011;46780;48.128;-1.704;2023-03-14T10:37:33;14.38;;;2.00;;
60908;SDS011;46780;48.128;-1.704;2023-03-14T10:40:00;15.35;;;2.50;;
60908;SDS011;46780;48.128;-1.704;2023-03-14T10:42:29;11.85;;;2.03;;
60908;SDS011;46780;48.128;-1.704;2023-03-14T10:44:57;12.23;;;2.10;;
60908;SDS011;46780;48.128;-1.704;2023-03-14T10:47:26;12.57;;;2.30;;
60908;SDS011;46780;48.128;-1.704;2023-03-14T10:49:53;12.45;;;2.40;;
60908;SDS011;46780;48.128;-1.704;2023-03-14T10:52:21;11.32;;;2.20;;
60908;SDS011;46780;48.128;-1.704;2023-03-14T10:54:53;13.88;;;2.35;;
60908;SDS011;46780;48.128;-1.704;2023-03-14T10:57:22;15.27;;;2.60;;
60908;SDS011;46780;48.128;-1.704;2023-03-14T10:59:49;12.95;;;2.40;;
60908;SDS011;46780;48.128;-1.704;2023-03-14T11:02:25;10.75;;;2.10;;
60908;SDS011;46780;48.128;-1.704;2023-03-14T11:05:08;12.52;;;2.20;;
60908;SDS011;46780;48.128;-1.704;2023-03-14T11:07:44;11.45;;;2.38;;
60908;SDS011;46780;48.128;-1.704;2023-03-14T11:10:14;12.95;;;2.50;;
60908;SDS011;46780;48.128;-1.704;2023-03-14T11:12:49;12.30;;;2.33;;
60908;SDS011;46780;48.128;-1.704;2023-03-14T11:15:24;15.18;;;2.70;;
60908;SDS011;46780;48.128;-1.704;2023-03-14T11:17:59;13.93;;;2.70;;
60908;SDS011;46780;48.128;-1.704;2023-03-14T11:20:38;14.75;;;2.67;;
60908;SDS011;46780;48.128;-1.704;2023-03-14T11:23:12;15.52;;;2.75;;
60908;SDS011;46780;48.128;-1.704;2023-03-14T11:25:45;12.82;;;2.60;;
60908;SDS011;46780;48.128;-1.704;2023-03-14T11:28:17;14.27;;;2.63;;
60908;SDS011;46780;48.128;-1.704;2023-03-14T11:30:50;16.92;;;2.55;;
60908;SDS011;46780;48.128;-1.704;2023-03-14T11:33:20;14.07;;;2.55;;
60908;SDS011;46780;48.128;-1.704;2023-03-14T11:35:52;14.48;;;2.60;;
60908;SDS011;46780;48.128;-1.704;2023-03-14T11:38:27;12.57;;;2.42;;
60908;SDS011;46780;48.128;-1.704;2023-03-14T11:40:59;14.70;;;2.55;;
60908;SDS011;46780;48.128;-1.704;2023-03-14T11:43:28;14.32;;;2.50;;
60908;SDS011;46780;48.128;-1.704;2023-03-14T11:45:57;13.40;;;2.67;;
60908;SDS011;46780;48.128;-1.704;2023-03-14T11:48:29;13.02;;;2.90;;
60908;SDS011;46780;48.128;-1.704;2023-03-14T11:51:04;12.18;;;2.40;;
60908;SDS011;46780;48.128;-1.704;2023-03-14T11:53:40;14.38;;;2.55;;
60908;SDS011;46780;48.128;-1.704;2023-03-14T11:56:16;13.27;;;2.25;;
60908;SDS011;46780;48.128;-1.704;2023-03-14T11:58:50;12.68;;;2.38;;
60908;SDS011;46780;48.128;-1.704;2023-03-14T12:01:21;12.27;;;2.67;;
60908;SDS011;46780;48.128;-1.704;2023-03-14T12:03:54;16.13;;;3.00;;
60908;SDS011;46780;48.128;-1.704;2023-03-14T12:06:26;12.88;;;2.40;;
60908;SDS011;46780;48.128;-1.704;2023-03-14T12:08:58;11.18;;;2.88;;
60908;SDS011;46780;48.128;-1.704;2023-03-14T12:11:34;12.27;;;2.40;;
60908;SDS011;46780;48.128;-1.704;2023-03-14T12:14:14;12.70;;;2.50;;
60908;SDS011;46780;48.128;-1.704;2023-03-14T12:16:45;13.55;;;2.70;;
60908;SDS011;46780;48.128;-1.704;2023-03-14T12:19:13;12.48;;;2.67;;
60908;SDS011;46780;48.128;-1.704;2023-03-14T12:21:56;14.23;;;2.60;;
60908;SDS011;46780;48.128;-1.704;2023-03-14T12:24:26;15.98;;;3.00;;
60908;SDS011;46780;48.128;-1.704;2023-03-14T12:26:56;14.60;;;2.70;;
60908;SDS011;46780;48.128;-1.704;2023-03-14T12:29:24;11.77;;;2.45;;
60908;SDS011;46780;48.128;-1.704;2023-03-14T12:32:06;16.95;;;2.95;;
60908;SDS011;46780;48.128;-1.704;2023-03-14T12:34:34;15.20;;;2.42;;
60908;SDS011;46780;48.128;-1.704;2023-03-14T12:37:05;12.88;;;2.33;;
60908;SDS011;46780;48.128;-1.704;2023-03-14T12:39:43;12.00;;;2.33;;
60908;SDS011;46780;48.128;-1.704;2023-03-14T12:42:20;14.60;;;2.30;;
60908;SDS011;46780;48.128;-1.704;2023-03-14T12:45:13;13.82;;;2.55;;
60908;SDS011;46780;48.128;-1.704;2023-03-14T12:47:54;14.07;;;2.85;;
60908;SDS011;46780;48.128;-1.704;2023-03-14T12:50:26;12.25;;;2.50;;
60908;SDS011;46780;48.128;-1.704;2023-03-14T12:53:04;13.43;;;2.30;;
60908;SDS011;46780;48.128;-1.704;2023-03-14T12:55:46;17.13;;;2.78;;
60908;SDS011;46780;48.128;-1.704;2023-03-14T12:58:23;13.45;;;2.67;;
60908;SDS011;46780;48.128;-1.704;2023-03-14T13:00:58;14.48;;;2.33;;
60908;SDS011;46780;48.128;-1.704;2023-03-14T13:03:27;15.05;;;3.08;;
60908;SDS011;46780;48.128;-1.704;2023-03-14T13:06:04;13.60;;;2.90;;
60908;SDS011;46780;48.128;-1.704;2023-03-14T13:08:36;18.13;;;3.00;;
60908;SDS011;46780;48.128;-1.704;2023-03-14T13:11:04;17.45;;;2.67;;
60908;SDS011;46780;48.128;-1.704;2023-03-14T13:13:35;12.17;;;2.27;;
60908;SDS011;46780;48.128;-1.704;2023-03-14T13:16:09;12.50;;;2.40;;
60908;SDS011;46780;48.128;-1.704;2023-03-14T13:18:39;11.43;;;2.40;;
60908;SDS011;46780;48.128;-1.704;2023-03-14T13:21:09;10.68;;;2.05;;
60908;SDS011;46780;48.128;-1.704;2023-03-14T13:23:40;17.90;;;2.58;;
60908;SDS011;46780;48.128;-1.704;2023-03-14T13:26:18;11.85;;;2.30;;
60908;SDS011;46780;48.128;-1.704;2023-03-14T13:28:47;13.25;;;2.50;;
60908;SDS011;46780;48.128;-1.704;2023-03-14T13:31:18;14.23;;;2.45;;
60908;SDS011;46780;48.128;-1.704;2023-03-14T13:33:56;12.18;;;2.55;;
60908;SDS011;46780;48.128;-1.704;2023-03-14T13:36:23;16.25;;;3.20;;
60908;SDS011;46780;48.128;-1.704;2023-03-14T13:38:55;16.67;;;3.22;;
60908;SDS011;46780;48.128;-1.704;2023-03-14T13:41:22;18.83;;;3.58;;
60908;SDS011;46780;48.128;-1.704;2023-03-14T13:43:51;19.65;;;3.58;;
60908;SDS011;46780;48.128;-1.704;2023-03-14T13:46:22;16.13;;;3.25;;
60908;SDS011;46780;48.128;-1.704;2023-03-14T13:48:49;15.98;;;3.40;;
60908;SDS011;46780;48.128;-1.704;2023-03-14T13:51:18;17.02;;;3.78;;
60908;SDS011;46780;48.128;-1.704;2023-03-14T13:53:47;17.88;;;3.10;;
60908;SDS011;46780;48.128;-1.704;2023-03-14T13:56:15;15.45;;;2.95;;
60908;SDS011;46780;48.128;-1.704;2023-03-14T13:58:42;18.08;;;3.10;;
60908;SDS011;46780;48.128;-1.704;2023-03-14T14:01:14;18.85;;;3.15;;
60908;SDS011;46780;48.128;-1.704;2023-03-14T14:03:42;14.63;;;2.70;;
60908;SDS011;46780;48.128;-1.704;2023-03-14T14:06:25;17.92;;;2.85;;
60908;SDS011;46780;48.128;-1.704;2023-03-14T14:08:54;15.20;;;3.03;;
60908;SDS011;46780;48.128;-1.704;2023-03-14T14:11:25;16.45;;;2.80;;
60908;SDS011;46780;48.128;-1.704;2023-03-14T14:13:58;16.27;;;2.80;;
60908;SDS011;46780;48.128;-1.704;2023-03-14T14:16:26;18.10;;;3.05;;
60908;SDS011;46780;48.128;-1.704;2023-03-14T14:18:55;15.70;;;2.60;;
60908;SDS011;46780;48.128;-1.704;2023-03-14T14:21:24;14.43;;;2.58;;
60908;SDS011;46780;48.128;-1.704;2023-03-14T14:23:51;17.35;;;3.05;;
60908;SDS011;46780;48.128;-1.704;2023-03-14T14:26:18;13.00;;;2.60;;
60908;SDS011;46780;48.128;-1.704;2023-03-14T14:28:45;13.25;;;2.50;;
60908;SDS011;46780;48.128;-1.704;2023-03-14T14:31:19;12.07;;;2.60;;
60908;SDS011;46780;48.128;-1.704;2023-03-14T14:33:54;14.82;;;2.67;;
60908;SDS011;46780;48.128;-1.704;2023-03-14T14:36:23;14.18;;;2.50;;
60908;SDS011;46780;48.128;-1.704;2023-03-14T14:38:52;14.15;;;2.40;;